Time;durP1;ratioP1;P1;durP2;ratioP2;P2;SDS_P1;SDS_P2;PMS_P1;PMS_P2;Temp;Humidity;BMP_temperature;BMP_pressure;BME280_temperature;BME280_humidity;BME280_pressure;Samples;Min_cycle;Max_cycle;Signal;HPM_P1;HPM_P2
2022/12/13 00:01:18;;;;;;;89.97;43.80;;;-6.90;99.90;;;;;;5004828;28;20319;-72
2022/12/13 00:03:45;;;;;;;95.00;45.38;;;-6.90;99.90;;;;;;5038405;28;20053;-71
2022/12/13 00:06:13;;;;;;;87.50;43.33;;;-6.70;99.90;;;;;;5050582;28;20056;-70
2022/12/13 00:08:40;;;;;;;93.78;45.22;;;-6.70;99.90;;;;;;5015239;28;20136;-70
2022/12/13 00:11:11;;;;;;;93.15;44.25;;;-6.90;99.90;;;;;;5014216;28;20418;-70
2022/12/13 00:13:38;;;;;;;95.93;46.05;;;-7.00;99.90;;;;;;5021813;28;20045;-71
2022/12/13 00:16:09;;;;;;;88.80;43.00;;;-6.80;99.90;;;;;;5018459;28;20045;-71
2022/12/13 00:18:36;;;;;;;93.18;44.38;;;-6.90;99.90;;;;;;5055895;28;20725;-70
2022/12/13 00:21:07;;;;;;;100.32;48.33;;;-6.70;99.90;;;;;;5012975;28;20037;-70
2022/12/13 00:23:35;;;;;;;104.75;45.45;;;-6.90;99.90;;;;;;5019089;28;20726;-70
2022/12/13 00:26:04;;;;;;;93.63;44.92;;;-6.80;99.90;;;;;;5022753;28;20037;-71
2022/12/13 00:28:30;;;;;;;85.47;45.65;;;-6.70;99.90;;;;;;5020459;28;20049;-71
2022/12/13 00:30:58;;;;;;;91.00;46.00;;;-6.90;99.90;;;;;;5018077;28;20125;-71
2022/12/13 00:33:45;;;;;;;95.28;46.15;;;-7.00;99.90;;;;;;5021540;28;20045;-69
2022/12/13 00:36:12;;;;;;;91.32;43.40;;;-7.00;99.90;;;;;;5018419;28;20041;-70
2022/12/13 00:38:39;;;;;;;98.03;47.17;;;-7.10;99.90;;;;;;5005108;28;20802;-69
2022/12/13 00:41:14;;;;;;;97.13;44.95;;;-7.20;99.90;;;;;;5012480;28;20136;-70
2022/12/13 00:43:41;;;;;;;96.22;46.75;;;-7.30;99.90;;;;;;5022586;28;20295;-71
2022/12/13 00:46:14;;;;;;;184.52;53.20;;;-7.30;99.90;;;;;;5015046;28;20029;-69
2022/12/13 00:48:42;;;;;;;97.43;46.20;;;-7.20;99.90;;;;;;5020285;28;20425;-70
2022/12/13 00:51:11;;;;;;;117.18;49.88;;;-7.20;99.90;;;;;;5012554;28;20049;-71
2022/12/13 00:53:37;;;;;;;115.55;47.85;;;-7.20;99.90;;;;;;5019466;28;20114;-70
2022/12/13 00:56:13;;;;;;;103.63;45.70;;;-7.20;99.90;;;;;;5016651;28;20052;-70
2022/12/13 00:58:40;;;;;;;107.03;45.35;;;-7.20;99.90;;;;;;5019837;28;20049;-70
2022/12/13 01:01:10;;;;;;;102.20;42.92;;;-7.00;99.90;;;;;;5015539;28;20141;-71
2022/12/13 01:03:39;;;;;;;104.07;43.15;;;-6.80;99.90;;;;;;5018712;28;20620;-71
2022/12/13 01:06:19;;;;;;;100.72;44.50;;;-6.70;99.90;;;;;;5047117;28;20178;-70
2022/12/13 01:08:47;;;;;;;96.88;43.90;;;-6.70;99.90;;;;;;5025399;28;20604;-69
2022/12/13 01:11:14;;;;;;;93.75;43.58;;;-6.60;99.90;;;;;;5017475;28;20033;-70
2022/12/13 01:13:41;;;;;;;97.10;44.22;;;-6.70;99.90;;;;;;5022281;28;20059;-70
2022/12/13 01:16:09;;;;;;;102.18;41.70;;;-6.60;99.90;;;;;;5020774;28;20718;-70
2022/12/13 01:18:37;;;;;;;98.85;43.65;;;-6.70;99.90;;;;;;5026449;28;20052;-70
2022/12/13 01:21:06;;;;;;;95.93;41.13;;;-6.70;99.90;;;;;;5024657;28;20516;-70
2022/12/13 01:23:35;;;;;;;99.38;44.15;;;-6.70;99.90;;;;;;5021182;28;20044;-70
2022/12/13 01:26:03;;;;;;;104.80;44.13;;;-6.80;99.90;;;;;;5022021;28;20065;-70
2022/12/13 01:28:31;;;;;;;96.10;44.42;;;-6.80;99.90;;;;;;5022528;28;20056;-71
2022/12/13 01:31:04;;;;;;;89.05;41.90;;;-6.80;99.90;;;;;;5023554;28;20045;-71
2022/12/13 01:33:32;;;;;;;92.32;42.88;;;-6.80;99.90;;;;;;5055610;28;20092;-70
2022/12/13 01:36:04;;;;;;;90.05;40.85;;;-6.90;99.90;;;;;;5019484;28;20051;-70
2022/12/13 01:38:32;;;;;;;97.70;41.35;;;-6.90;99.90;;;;;;5041719;28;20702;-71
2022/12/13 01:41:05;;;;;;;93.20;43.63;;;-6.80;99.90;;;;;;5021603;28;20041;-70
2022/12/13 01:43:43;;;;;;;93.03;41.80;;;-6.80;99.90;;;;;;5040449;28;20037;-71
2022/12/13 01:46:11;;;;;;;94.22;42.47;;;-6.70;99.90;;;;;;5005221;28;20049;-71
2022/12/13 01:48:44;;;;;;;90.53;42.50;;;-6.70;99.90;;;;;;5022749;28;20495;-70
2022/12/13 01:51:14;;;;;;;94.93;41.72;;;-6.80;99.90;;;;;;5020711;28;20041;-71
2022/12/13 01:53:44;;;;;;;87.07;39.38;;;-6.90;99.90;;;;;;5022442;28;20045;-70
2022/12/13 01:56:17;;;;;;;93.15;41.45;;;-6.90;99.90;;;;;;5003981;28;20097;-71
2022/12/13 01:58:46;;;;;;;78.25;41.58;;;-7.00;99.90;;;;;;5025412;28;20040;-70
2022/12/13 02:01:13;;;;;;;90.97;41.67;;;-7.00;99.90;;;;;;5018118;28;20736;-71
2022/12/13 02:03:40;;;;;;;88.15;41.03;;;-7.00;99.90;;;;;;5026303;28;20045;-70
2022/12/13 02:06:13;;;;;;;88.30;39.72;;;-6.90;99.90;;;;;;5018602;28;20055;-70
2022/12/13 02:08:42;;;;;;;97.25;42.92;;;-7.00;99.90;;;;;;5005162;28;20053;-70
2022/12/13 02:11:10;;;;;;;85.68;40.88;;;-7.00;99.90;;;;;;5019039;28;20497;-69
2022/12/13 02:13:40;;;;;;;95.35;42.15;;;-7.00;99.90;;;;;;5027687;28;20056;-70
2022/12/13 02:16:25;;;;;;;84.55;39.67;;;-7.00;99.90;;;;;;5018385;28;20056;-70
2022/12/13 02:19:20;;;;;;;95.28;41.50;;;-7.20;99.90;;;;;;5023429;28;20123;-69
2022/12/13 02:22:11;;;;;;;87.32;42.45;;;-7.40;99.90;;;;;;5020598;28;20044;-70
2022/12/13 02:24:53;;;;;;;84.55;40.47;;;-7.60;99.90;;;;;;5019744;28;20060;-70
2022/12/13 02:27:30;;;;;;;81.30;40.58;;;-7.60;99.90;;;;;;5034669;28;20044;-70
2022/12/13 02:30:23;;;;;;;88.50;38.42;;;-7.70;99.90;;;;;;5055891;28;20095;-70
2022/12/13 02:33:14;;;;;;;91.80;38.92;;;-7.40;99.90;;;;;;5002516;28;20077;-70
2022/12/13 02:35:53;;;;;;;89.35;40.15;;;-7.30;99.90;;;;;;5004123;28;20038;-69
2022/12/13 02:38:34;;;;;;;90.88;41.92;;;-7.20;99.90;;;;;;4998913;28;20041;-69
2022/12/13 02:41:13;;;;;;;87.15;39.40;;;-7.10;99.90;;;;;;5001852;28;20053;-69
2022/12/13 02:43:47;;;;;;;87.80;40.00;;;-7.10;99.90;;;;;;5008942;28;21376;-70
2022/12/13 02:46:19;;;;;;;96.63;41.22;;;-7.00;99.90;;;;;;5000713;28;20049;-69
2022/12/13 02:48:48;;;;;;;87.68;41.08;;;-7.00;99.90;;;;;;4998708;28;20033;-70
2022/12/13 02:51:16;;;;;;;96.40;40.67;;;-7.10;99.90;;;;;;5000223;28;20136;-70
2022/12/13 02:53:44;;;;;;;87.20;39.30;;;-7.40;99.90;;;;;;5003866;28;20052;-69
2022/12/13 02:56:10;;;;;;;85.70;43.60;;;-7.60;99.90;;;;;;5002228;28;20037;-70
2022/12/13 02:58:43;;;;;;;97.03;42.35;;;-7.60;99.90;;;;;;5002970;28;20049;-70
2022/12/13 03:01:30;;;;;;;89.30;41.35;;;-7.50;99.90;;;;;;5000826;28;20045;-69
2022/12/13 03:04:19;;;;;;;100.40;39.70;;;-7.40;99.90;;;;;;4984653;28;20045;-69
2022/12/13 03:07:27;;;;;;;105.93;41.90;;;-7.20;99.90;;;;;;5003306;28;20072;-69
2022/12/13 03:10:05;;;;;;;93.40;39.67;;;-7.10;99.90;;;;;;5032253;28;20041;-70
2022/12/13 03:15:55;;;;;;;96.20;42.10;;;-7.10;99.90;;;;;;5004209;28;20409;-70
2022/12/13 03:18:24;;;;;;;97.40;41.55;;;-7.10;99.90;;;;;;5000451;28;20108;-70
2022/12/13 03:20:59;;;;;;;103.70;43.20;;;-7.00;99.90;;;;;;5004949;28;20064;-69
2022/12/13 03:23:26;;;;;;;116.47;45.58;;;-7.00;99.90;;;;;;4999097;28;20448;-70
2022/12/13 03:25:56;;;;;;;104.88;43.85;;;-6.90;99.90;;;;;;5007504;28;20039;-69
2022/12/13 03:28:23;;;;;;;114.20;43.03;;;-7.00;99.90;;;;;;4999254;28;21189;-69
2022/12/13 03:30:50;;;;;;;99.85;39.83;;;-7.10;99.90;;;;;;5005537;28;20044;-69
2022/12/13 03:33:17;;;;;;;91.47;39.85;;;-7.10;99.90;;;;;;4998899;28;20510;-69
2022/12/13 03:35:44;;;;;;;94.50;39.28;;;-7.10;99.90;;;;;;5003284;28;20545;-70
2022/12/13 03:38:13;;;;;;;98.75;41.78;;;-7.30;99.90;;;;;;5001942;28;20518;-70
2022/12/13 03:40:55;;;;;;;85.95;39.28;;;-7.30;99.90;;;;;;5005670;28;20510;-69
2022/12/13 03:43:22;;;;;;;89.03;39.95;;;-7.40;99.90;;;;;;5002550;28;20037;-70
2022/12/13 03:45:51;;;;;;;85.65;39.33;;;-7.70;99.90;;;;;;5003779;28;20041;-70
2022/12/13 03:48:18;;;;;;;85.78;37.83;;;-7.80;99.90;;;;;;4999776;28;21429;-69
2022/12/13 03:53:28;;;;;;;94.22;40.95;;;-7.40;99.90;;;;;;4952806;28;20039;-70
2022/12/13 03:56:04;;;;;;;89.63;40.28;;;-7.30;99.90;;;;;;4963808;28;20124;-70
2022/12/13 03:58:32;;;;;;;107.28;43.92;;;-7.40;99.90;;;;;;4972962;28;20058;-70
2022/12/13 04:01:04;;;;;;;93.45;41.47;;;-7.50;99.90;;;;;;4970978;28;20259;-70
2022/12/13 04:03:31;;;;;;;93.22;40.63;;;-7.50;99.90;;;;;;4990154;28;20145;-70
2022/12/13 04:05:57;;;;;;;83.50;38.92;;;-7.40;99.90;;;;;;4991473;28;20053;-70
2022/12/13 04:08:24;;;;;;;93.03;41.58;;;-7.50;99.90;;;;;;4974517;28;20053;-70
2022/12/13 04:10:51;;;;;;;88.80;39.90;;;-7.50;99.90;;;;;;4991275;28;20224;-70
2022/12/13 04:13:32;;;;;;;94.43;42.55;;;-7.50;99.90;;;;;;4989652;28;20115;-70
2022/12/13 04:16:01;;;;;;;81.55;39.55;;;-7.50;99.90;;;;;;4990301;28;20139;-69
2022/12/13 04:18:28;;;;;;;90.97;39.58;;;-7.50;99.90;;;;;;4975833;28;20049;-70
2022/12/13 04:20:56;;;;;;;95.90;39.72;;;-7.70;99.90;;;;;;4975227;28;20030;-70
2022/12/13 04:23:23;;;;;;;98.10;42.15;;;-7.60;99.90;;;;;;4986993;28;20133;-70
2022/12/13 04:25:49;;;;;;;92.40;39.95;;;-7.60;99.90;;;;;;4978938;28;20464;-70
2022/12/13 04:28:16;;;;;;;84.63;40.33;;;-7.60;99.90;;;;;;4973930;28;20038;-70
2022/12/13 04:30:49;;;;;;;89.15;41.58;;;-7.60;99.90;;;;;;4991351;28;20409;-70
2022/12/13 04:33:20;;;;;;;96.40;43.20;;;-7.60;99.90;;;;;;4973652;28;20057;-69
2022/12/13 04:35:47;;;;;;;91.93;40.28;;;-7.60;99.90;;;;;;5007922;28;20050;-70
2022/12/13 04:38:13;;;;;;;93.72;40.55;;;-7.50;99.90;;;;;;4972972;28;20050;-70
2022/12/13 04:40:40;;;;;;;87.45;41.92;;;-7.50;99.90;;;;;;4977853;28;20259;-70
2022/12/13 04:43:07;;;;;;;88.90;41.03;;;-7.60;99.90;;;;;;4992043;28;20376;-69
2022/12/13 04:45:33;;;;;;;80.07;41.00;;;-7.60;99.90;;;;;;4992928;28;20065;-70
2022/12/13 04:48:00;;;;;;;89.15;42.30;;;-7.80;99.90;;;;;;4980190;28;20425;-70
2022/12/13 04:50:27;;;;;;;84.72;41.72;;;-7.80;99.90;;;;;;4975351;28;20042;-69
2022/12/13 04:52:53;;;;;;;82.47;40.42;;;-7.80;99.90;;;;;;4980186;28;20046;-69
2022/12/13 04:55:20;;;;;;;88.05;40.47;;;-7.90;99.90;;;;;;4977354;28;20060;-70
2022/12/13 04:57:46;;;;;;;82.32;39.40;;;-7.80;99.90;;;;;;4979467;28;20046;-72
2022/12/13 05:00:13;;;;;;;90.63;40.22;;;-7.80;99.90;;;;;;4977661;28;20045;-70
2022/12/13 05:02:40;;;;;;;93.00;41.38;;;-7.90;99.90;;;;;;4978907;28;20535;-69
2022/12/13 05:05:08;;;;;;;97.88;42.40;;;-7.90;99.90;;;;;;4963643;28;20070;-70
2022/12/13 05:07:36;;;;;;;100.50;43.50;;;-7.80;99.90;;;;;;4993543;28;20105;-71
2022/12/13 05:10:09;;;;;;;91.80;41.03;;;-7.80;99.90;;;;;;4991058;28;20161;-71
2022/12/13 05:12:36;;;;;;;83.57;38.45;;;-7.80;99.90;;;;;;4979041;28;20570;-72
2022/12/13 05:15:03;;;;;;;94.28;42.58;;;-7.70;99.90;;;;;;4978637;28;20057;-71
2022/12/13 05:17:30;;;;;;;88.47;42.78;;;-7.80;99.90;;;;;;4992555;28;20061;-71
2022/12/13 05:19:57;;;;;;;89.97;44.72;;;-7.90;99.90;;;;;;4995117;28;20044;-70
2022/12/13 05:22:23;;;;;;;92.30;42.25;;;-8.10;99.90;;;;;;4977210;28;20041;-71
2022/12/13 05:24:50;;;;;;;99.15;44.42;;;-8.20;99.90;;;;;;4981437;28;20045;-70
2022/12/13 05:27:17;;;;;;;105.38;44.97;;;-8.00;99.90;;;;;;4978508;28;20034;-71
2022/12/13 05:29:52;;;;;;;89.05;43.00;;;-7.90;99.90;;;;;;4995431;28;20563;-71
2022/12/13 05:32:37;;;;;;;88.75;38.55;;;-7.90;99.90;;;;;;4991615;28;20097;-70
2022/12/13 05:35:14;;;;;;;89.72;42.10;;;-7.90;99.90;;;;;;4990924;28;20137;-71
2022/12/13 05:37:50;;;;;;;92.60;41.85;;;-7.90;99.90;;;;;;4981011;28;20046;-70
2022/12/13 05:40:25;;;;;;;92.97;41.88;;;-7.90;99.90;;;;;;4989400;28;20311;-71
2022/12/13 05:42:52;;;;;;;90.22;38.70;;;-8.00;99.90;;;;;;4980234;28;20038;-71
2022/12/13 05:45:29;;;;;;;82.50;38.67;;;-8.00;99.90;;;;;;4975502;28;20053;-70
2022/12/13 05:47:56;;;;;;;81.65;40.90;;;-8.00;99.90;;;;;;4980068;28;20034;-69
2022/12/13 05:50:23;;;;;;;82.82;40.38;;;-8.10;99.90;;;;;;4973579;28;20659;-70
2022/12/13 05:52:49;;;;;;;83.45;41.05;;;-8.00;99.90;;;;;;4978055;28;20100;-69
2022/12/13 05:55:16;;;;;;;85.40;39.53;;;-8.10;99.90;;;;;;4977043;28;20046;-69
2022/12/13 05:57:43;;;;;;;82.13;41.13;;;-8.10;99.90;;;;;;4992034;28;20043;-69
2022/12/13 06:00:17;;;;;;;82.40;40.30;;;-8.10;99.90;;;;;;4975252;28;20046;-70
2022/12/13 06:02:57;;;;;;;79.18;40.25;;;-8.10;99.90;;;;;;4977260;28;20525;-69
2022/12/13 06:05:28;;;;;;;88.57;41.45;;;-8.10;99.90;;;;;;4974062;28;20054;-68
2022/12/13 06:07:55;;;;;;;85.93;42.30;;;-8.10;99.90;;;;;;4979169;28;20027;-69
2022/12/13 06:10:23;;;;;;;86.60;39.15;;;-8.00;99.90;;;;;;4974885;28;20113;-71
2022/12/13 06:13:00;;;;;;;84.43;41.42;;;-8.20;99.90;;;;;;4985065;28;20050;-70
2022/12/13 06:15:29;;;;;;;78.10;39.22;;;-8.20;99.90;;;;;;4992167;28;20058;-69
2022/12/13 06:18:00;;;;;;;75.63;36.75;;;-8.10;99.90;;;;;;4983518;28;20114;-69
2022/12/13 06:20:27;;;;;;;82.28;39.22;;;-8.10;99.90;;;;;;4976089;28;20053;-71
2022/12/13 06:22:54;;;;;;;73.20;38.88;;;-8.20;99.90;;;;;;4978393;28;20078;-72
2022/12/13 06:25:21;;;;;;;81.45;40.05;;;-8.20;99.90;;;;;;4973037;28;20351;-69
2022/12/13 06:28:00;;;;;;;74.10;38.55;;;-8.30;99.90;;;;;;4996255;28;20197;-69
2022/12/13 06:30:30;;;;;;;63.95;37.80;;;-8.30;99.90;;;;;;4975312;28;20336;-71
2022/12/13 06:32:57;;;;;;;83.60;40.63;;;-8.30;99.90;;;;;;4978222;28;20168;-69
2022/12/13 06:35:24;;;;;;;85.40;40.00;;;-8.50;99.90;;;;;;4975613;28;20034;-68
2022/12/13 06:37:56;;;;;;;84.05;41.58;;;-8.70;99.90;;;;;;4978551;28;20504;-72
2022/12/13 06:40:30;;;;;;;75.05;40.58;;;-8.70;99.90;;;;;;4974016;28;20050;-69
2022/12/13 06:42:57;;;;;;;82.40;39.83;;;-8.50;99.90;;;;;;4978112;28;20309;-70
2022/12/13 06:45:24;;;;;;;79.22;40.67;;;-8.40;99.90;;;;;;4975145;28;20146;-70
2022/12/13 06:47:51;;;;;;;84.20;42.08;;;-8.40;99.90;;;;;;4987124;28;20480;-69
2022/12/13 06:50:17;;;;;;;90.78;42.30;;;-8.30;99.90;;;;;;4988102;28;20411;-69
2022/12/13 06:52:47;;;;;;;93.30;41.92;;;-8.40;99.90;;;;;;4975493;28;20050;-69
2022/12/13 06:55:14;;;;;;;86.60;42.50;;;-8.40;99.90;;;;;;4970478;28;20061;-69
2022/12/13 06:57:50;;;;;;;80.47;42.97;;;-8.50;99.90;;;;;;5005799;28;20417;-70
2022/12/13 07:00:17;;;;;;;88.18;45.13;;;-8.50;99.90;;;;;;4955684;28;20046;-70
2022/12/13 07:02:53;;;;;;;89.38;44.90;;;-8.40;99.90;;;;;;4971983;28;20401;-70
2022/12/13 07:05:21;;;;;;;84.18;41.60;;;-8.40;99.90;;;;;;4973740;28;20047;-69
2022/12/13 07:07:47;;;;;;;86.93;43.88;;;-8.60;99.90;;;;;;5002178;28;20045;-69
2022/12/13 07:10:14;;;;;;;104.65;44.78;;;-8.60;99.90;;;;;;4972677;28;20042;-69
2022/12/13 07:12:49;;;;;;;82.78;43.22;;;-8.40;99.90;;;;;;4972513;28;20398;-70
2022/12/13 07:15:15;;;;;;;95.32;48.20;;;-8.30;99.90;;;;;;4972668;28;20042;-69
2022/12/13 07:17:42;;;;;;;102.20;47.55;;;-8.30;99.90;;;;;;4975555;28;20311;-69
2022/12/13 07:20:10;;;;;;;85.70;43.28;;;-8.30;99.90;;;;;;4987461;28;20042;-70
2022/12/13 07:22:37;;;;;;;79.72;42.55;;;-8.30;99.90;;;;;;4975309;28;20042;-69
2022/12/13 07:25:13;;;;;;;90.72;44.75;;;-8.20;99.90;;;;;;4973442;28;20489;-70
2022/12/13 07:28:00;;;;;;;114.63;49.05;;;-8.40;99.90;;;;;;4979188;28;20042;-69
2022/12/13 07:30:31;;;;;;;149.93;62.15;;;-8.30;99.90;;;;;;4985331;28;20129;-69
2022/12/13 07:32:59;;;;;;;123.13;54.05;;;-8.20;99.90;;;;;;4980598;28;20380;-69
2022/12/13 07:35:26;;;;;;;104.22;49.85;;;-8.10;99.90;;;;;;4986476;28;20631;-69
2022/12/13 07:37:53;;;;;;;113.78;50.30;;;-8.10;99.90;;;;;;4976720;28;20058;-70
2022/12/13 07:40:19;;;;;;;107.85;47.80;;;-8.00;99.90;;;;;;4972385;28;20520;-69
2022/12/13 07:42:50;;;;;;;108.65;50.55;;;-8.00;99.90;;;;;;5006844;28;20070;-68
2022/12/13 07:45:17;;;;;;;118.70;51.55;;;-8.00;99.90;;;;;;4972175;28;20049;-69
2022/12/13 07:47:44;;;;;;;108.65;50.78;;;-7.90;99.90;;;;;;4975496;28;20041;-69
2022/12/13 07:50:11;;;;;;;116.82;52.70;;;-7.90;99.90;;;;;;4971846;28;20508;-71
2022/12/13 07:52:50;;;;;;;118.90;54.67;;;-7.80;99.90;;;;;;4976005;28;20049;-70
2022/12/13 07:55:17;;;;;;;100.45;49.83;;;-7.70;99.90;;;;;;4991966;28;20038;-68
2022/12/13 07:57:49;;;;;;;100.60;48.05;;;-7.70;99.90;;;;;;4995332;28;20050;-68
2022/12/13 08:00:16;;;;;;;90.05;45.67;;;-7.80;99.90;;;;;;5009958;28;20050;-69
2022/12/13 08:02:42;;;;;;;97.90;45.80;;;-7.80;99.90;;;;;;5012443;28;20042;-69
2022/12/13 08:05:09;;;;;;;92.90;46.97;;;-7.90;99.90;;;;;;4977847;28;20244;-70
2022/12/13 08:07:52;;;;;;;101.03;51.20;;;-7.80;99.90;;;;;;4976708;28;20276;-69
2022/12/13 08:10:19;;;;;;;87.70;46.97;;;-7.80;99.90;;;;;;4972672;28;20472;-69
2022/12/13 08:12:46;;;;;;;96.80;50.00;;;-7.90;99.90;;;;;;4973976;28;20066;-70
2022/12/13 08:15:13;;;;;;;85.72;48.13;;;-7.80;99.90;;;;;;4973572;28;20310;-70
2022/12/13 08:17:40;;;;;;;87.82;48.17;;;-7.70;99.90;;;;;;4975167;28;20921;-69
2022/12/13 08:20:08;;;;;;;89.18;47.67;;;-7.50;99.90;;;;;;4974128;28;20046;-68
2022/12/13 08:22:35;;;;;;;97.72;50.47;;;-7.60;99.90;;;;;;4996129;28;20049;-70
2022/12/13 08:25:02;;;;;;;97.80;49.97;;;-7.70;99.90;;;;;;4996704;28;20124;-69
2022/12/13 08:27:29;;;;;;;90.57;51.58;;;-7.80;99.90;;;;;;4977616;28;20529;-70
2022/12/13 08:29:56;;;;;;;91.03;49.60;;;-7.60;99.90;;;;;;4995125;28;20426;-70
2022/12/13 08:32:23;;;;;;;93.07;49.70;;;-7.60;99.90;;;;;;4973747;28;20508;-70
2022/12/13 08:34:50;;;;;;;94.78;50.55;;;-7.50;99.90;;;;;;4976601;28;20046;-70
2022/12/13 08:37:17;;;;;;;97.95;51.15;;;-7.50;99.90;;;;;;4974281;28;20046;-70
2022/12/13 08:39:44;;;;;;;105.75;51.10;;;-7.30;99.90;;;;;;4974224;28;20042;-70
2022/12/13 08:42:15;;;;;;;97.78;51.40;;;-7.30;99.90;;;;;;4988638;28;20045;-71
2022/12/13 08:44:47;;;;;;;116.72;55.58;;;-7.10;99.90;;;;;;4973404;28;20118;-70
2022/12/13 08:47:15;;;;;;;155.00;61.72;;;-6.70;99.90;;;;;;4976802;28;20443;-71
2022/12/13 08:49:55;;;;;;;142.43;66.20;;;-6.20;99.90;;;;;;4976482;28;20221;-70
2022/12/13 08:52:30;;;;;;;999.08;144.43;;;-5.80;99.90;;;;;;4987060;28;20239;-70
2022/12/13 08:54:56;;;;;;;145.65;65.60;;;-5.40;99.90;;;;;;4975483;28;20093;-69
2022/12/13 08:57:23;;;;;;;151.60;69.00;;;-5.00;99.90;;;;;;4971851;28;20042;-70
2022/12/13 08:59:49;;;;;;;130.30;59.65;;;-4.70;99.90;;;;;;4976206;28;20049;-70
2022/12/13 09:02:16;;;;;;;134.40;66.60;;;-4.60;99.90;;;;;;4988457;28;20041;-70
2022/12/13 09:04:43;;;;;;;109.28;59.25;;;-4.40;99.90;;;;;;4987141;28;20058;-70
2022/12/13 09:07:10;;;;;;;123.30;63.92;;;-4.40;99.90;;;;;;4973502;28;20042;-70
2022/12/13 09:09:36;;;;;;;116.90;63.15;;;-4.40;99.90;;;;;;4973734;28;20424;-69
2022/12/13 09:12:04;;;;;;;117.30;61.33;;;-4.40;99.90;;;;;;4985926;28;20047;-70
2022/12/13 09:14:37;;;;;;;102.82;58.92;;;-4.50;99.90;;;;;;4972156;28;20150;-69
2022/12/13 09:17:13;;;;;;;92.80;58.00;;;-4.60;99.90;;;;;;4974283;28;20057;-69
2022/12/13 09:19:51;;;;;;;107.65;62.17;;;-4.70;99.90;;;;;;4974425;28;20066;-69
2022/12/13 09:22:25;;;;;;;110.97;63.97;;;-4.60;99.90;;;;;;4987781;28;20049;-70
2022/12/13 09:25:00;;;;;;;100.47;60.20;;;-4.20;99.90;;;;;;4984183;28;20100;-70
2022/12/13 09:27:29;;;;;;;103.28;65.30;;;-4.10;99.90;;;;;;5006768;28;20705;-69
2022/12/13 09:30:07;;;;;;;126.90;81.13;;;-3.90;99.90;;;;;;4980314;28;20238;-69
2022/12/13 09:32:34;;;;;;;105.80;64.20;;;-3.60;99.90;;;;;;5005240;28;20443;-70
2022/12/13 09:35:00;;;;;;;98.65;70.53;;;-3.60;99.90;;;;;;4997064;28;20328;-71
2022/12/13 09:37:28;;;;;;;106.82;64.40;;;-3.40;99.90;;;;;;4989899;28;20516;-70
2022/12/13 09:39:55;;;;;;;97.50;62.47;;;-3.40;99.90;;;;;;4977566;28;20046;-69
2022/12/13 09:42:24;;;;;;;91.97;61.85;;;-3.20;99.90;;;;;;4975620;28;20044;-69
2022/12/13 09:45:03;;;;;;;81.88;56.95;;;-3.30;99.90;;;;;;4990548;28;20070;-70
2022/12/13 09:47:34;;;;;;;84.38;59.65;;;-3.10;99.90;;;;;;4984677;28;20034;-70
2022/12/13 09:50:07;;;;;;;91.68;63.70;;;-3.10;99.90;;;;;;4976107;28;20056;-69
2022/12/13 09:52:42;;;;;;;92.68;62.55;;;-2.90;99.90;;;;;;5011809;23;20046;-71
2022/12/13 09:55:37;;;;;;;78.50;59.35;;;-2.80;99.90;;;;;;5014347;28;20045;-69
2022/12/13 09:58:26;;;;;;;100.28;64.85;;;-2.80;99.90;;;;;;5036198;28;20056;-69
2022/12/13 10:00:55;;;;;;;83.30;59.28;;;-2.70;99.90;;;;;;5022228;28;20068;-72
2022/12/13 10:03:23;;;;;;;86.70;62.33;;;-2.80;99.90;;;;;;5034292;28;20049;-69
2022/12/13 10:05:59;;;;;;;109.65;80.30;;;-2.90;99.90;;;;;;5027658;28;20045;-71
2022/12/13 10:08:40;;;;;;;82.30;61.17;;;-2.80;99.90;;;;;;5021903;28;20414;-72
2022/12/13 10:11:12;;;;;;;87.07;63.05;;;-3.10;99.90;;;;;;5023993;28;20037;-71
2022/12/13 10:13:53;;;;;;;81.90;60.97;;;-3.10;99.90;;;;;;5035220;28;20048;-71
2022/12/13 10:16:33;;;;;;;81.80;65.63;;;-3.10;99.90;;;;;;5034865;28;20044;-71
2022/12/13 10:19:22;;;;;;;81.05;64.40;;;-2.90;99.90;;;;;;5032962;28;20049;-71
2022/12/13 10:21:57;;;;;;;84.45;64.63;;;-2.80;99.90;;;;;;5036670;28;20045;-72
2022/12/13 10:24:47;;;;;;;76.32;60.33;;;-2.70;99.90;;;;;;5032576;28;20049;-71
2022/12/13 10:27:19;;;;;;;86.00;66.20;;;-2.50;99.90;;;;;;5033198;28;20174;-71
2022/12/13 10:30:12;;;;;;;78.47;64.07;;;-2.30;99.90;;;;;;5019343;28;20463;-70
2022/12/13 10:32:53;;;;;;;101.53;77.35;;;-2.50;99.90;;;;;;5031235;28;20036;-71
2022/12/13 10:35:29;;;;;;;81.18;67.63;;;-2.50;99.90;;;;;;5028124;28;20716;-71
2022/12/13 10:37:59;;;;;;;84.00;67.40;;;-2.50;99.90;;;;;;5031758;28;20065;-71
2022/12/13 10:40:35;;;;;;;79.78;69.20;;;-2.40;99.90;;;;;;5029794;28;20507;-70
2022/12/13 10:43:06;;;;;;;80.60;63.65;;;-2.30;99.90;;;;;;5038907;28;20052;-71
2022/12/13 10:45:33;;;;;;;79.63;63.30;;;-2.20;99.90;;;;;;5032146;28;20140;-71
2022/12/13 10:48:01;;;;;;;84.97;69.25;;;-2.40;99.90;;;;;;5034183;28;20028;-71
2022/12/13 10:50:30;;;;;;;73.25;65.28;;;-2.50;99.90;;;;;;5030075;28;20057;-71
2022/12/13 10:52:59;;;;;;;75.85;62.30;;;-2.50;99.90;;;;;;5036725;28;20481;-71
2022/12/13 10:55:39;;;;;;;70.97;60.53;;;-2.70;99.90;;;;;;5032210;28;20477;-68
2022/12/13 10:58:11;;;;;;;65.47;58.20;;;-2.90;99.90;;;;;;5033888;28;20427;-71
2022/12/13 11:00:45;;;;;;;79.07;59.95;;;-3.10;99.90;;;;;;5026159;28;20293;-71
2022/12/13 11:03:31;;;;;;;69.93;59.13;;;-3.10;99.90;;;;;;5014855;28;20121;-72
2022/12/13 11:06:12;;;;;;;76.57;60.20;;;-3.20;99.90;;;;;;5015578;28;20120;-69
2022/12/13 11:08:40;;;;;;;70.10;56.53;;;-3.10;99.90;;;;;;5012495;28;20168;-70
2022/12/13 11:11:08;;;;;;;74.00;58.55;;;-3.10;99.90;;;;;;5021338;28;20541;-70
2022/12/13 11:14:00;;;;;;;75.97;59.20;;;-3.20;99.90;;;;;;5013069;28;20043;-69
2022/12/13 11:16:36;;;;;;;72.13;54.85;;;-3.00;99.90;;;;;;5036622;28;20041;-71
2022/12/13 11:19:23;;;;;;;64.35;55.80;;;-3.00;99.90;;;;;;5038655;28;20061;-72
2022/12/13 11:21:53;;;;;;;75.70;52.30;;;-3.30;99.90;;;;;;5032590;28;20049;-71
2022/12/13 11:24:25;;;;;;;71.07;56.33;;;-3.30;99.90;;;;;;5035018;28;20045;-73
2022/12/13 11:26:59;;;;;;;79.97;54.17;;;-3.40;99.90;;;;;;5032891;28;20130;-71
2022/12/13 11:29:52;;;;;;;62.20;51.03;;;-3.20;99.90;;;;;;5033639;28;20526;-70
2022/12/13 11:32:49;;;;;;;73.10;53.90;;;-3.10;99.90;;;;;;5035554;28;20116;-72
2022/12/13 11:35:47;;;;;;;67.80;52.78;;;-3.10;99.90;;;;;;5033222;28;20597;-73
2022/12/13 11:39:08;;;;;;;66.72;49.22;;;-3.30;99.90;;;;;;5026049;28;20045;-70
2022/12/13 11:41:37;;;;;;;67.13;51.65;;;-3.30;99.90;;;;;;4971777;28;20401;-71
2022/12/13 11:44:39;;;;;;;66.65;53.10;;;-3.20;99.90;;;;;;5033296;28;20593;-70
2022/12/13 11:47:18;;;;;;;75.82;52.28;;;-3.30;99.90;;;;;;5034791;28;20438;-71
2022/12/13 11:49:48;;;;;;;69.28;50.95;;;-3.10;99.90;;;;;;5030650;28;20045;-71
2022/12/13 11:52:24;;;;;;;78.43;56.33;;;-3.10;99.90;;;;;;5032043;28;20041;-71
2022/12/13 11:55:03;;;;;;;111.80;66.18;;;-3.10;99.90;;;;;;5031710;28;20847;-71
2022/12/13 11:57:45;;;;;;;72.43;53.95;;;-3.00;99.90;;;;;;5031660;28;20052;-71
2022/12/13 12:00:33;;;;;;;64.47;47.55;;;-3.00;99.90;;;;;;5025884;28;20041;-71
2022/12/13 12:03:05;;;;;;;65.97;45.85;;;-3.00;99.90;;;;;;5031305;28;20115;-71
2022/12/13 12:05:35;;;;;;;64.82;44.60;;;-3.00;99.90;;;;;;5030450;28;20136;-72
2022/12/13 12:08:15;;;;;;;64.60;45.90;;;-2.90;99.90;;;;;;5036816;28;20044;-71
2022/12/13 12:11:16;;;;;;;69.75;45.20;;;-3.00;99.90;;;;;;5030265;28;20402;-71
2022/12/13 12:14:11;;;;;;;65.25;49.83;;;-2.80;99.90;;;;;;5032145;28;20044;-72
2022/12/13 12:16:45;;;;;;;68.13;47.05;;;-2.70;99.90;;;;;;5027426;28;20034;-72
2022/12/13 12:19:15;;;;;;;64.32;45.92;;;-2.70;99.90;;;;;;5013846;28;20427;-71
2022/12/13 12:21:51;;;;;;;69.75;49.45;;;-2.60;99.90;;;;;;5025084;28;20515;-71
2022/12/13 12:24:50;;;;;;;70.07;46.90;;;-2.60;99.90;;;;;;5019302;28;20045;-70
2022/12/13 12:27:45;;;;;;;68.43;50.17;;;-2.60;99.90;;;;;;5033809;28;20045;-70
2022/12/13 12:30:15;;;;;;;;;;;-2.50;99.90;;;;;;5032134;28;20040;-73
2022/12/13 12:33:01;;;;;;;66.47;46.83;;;-3.00;99.90;;;;;;5013282;28;19921;-73
2022/12/13 12:35:57;;;;;;;68.47;44.70;;;-2.90;99.90;;;;;;5015832;28;20045;-72
2022/12/13 12:38:57;;;;;;;70.25;47.13;;;-3.20;99.90;;;;;;5051721;28;20043;-73
2022/12/13 12:41:42;;;;;;;59.35;45.40;;;-3.20;99.90;;;;;;5028222;28;20556;-73
2022/12/13 12:44:36;;;;;;;68.93;50.78;;;-3.10;99.90;;;;;;5034488;28;20780;-73
2022/12/13 12:47:17;;;;;;;55.97;44.40;;;-3.10;99.90;;;;;;5018528;28;20041;-71
2022/12/13 12:50:23;;;;;;;61.25;47.65;;;-3.00;99.90;;;;;;5012485;28;20436;-73
2022/12/13 12:53:05;;;;;;;73.80;49.22;;;-3.00;99.90;;;;;;5031381;28;20041;-73
2022/12/13 12:55:37;;;;;;;55.97;46.22;;;-2.90;99.90;;;;;;5032666;28;20120;-73
2022/12/13 12:58:29;;;;;;;67.15;49.72;;;-3.10;99.90;;;;;;5033061;28;20048;-74
2022/12/13 13:01:22;;;;;;;55.17;44.55;;;-3.00;99.90;;;;;;5029020;28;20045;-74